Terminal Aerodrome Forecast
Issued by NWS Bismarck, ND

Home | Current Version | Previous Version | Text Only | Print | Product List | Glossary Off
Versions: 1 2 3 4 5 6 7 8 9 10 11 12 13 14

000
FTUS43 KBIS 272300
TAFISN
TAF
KISN 272331Z 2800/2824 04006KT P6SM SCT045
     FM280300 08003KT P6SM FEW050
     FM280600 10002KT P6SM SCT060
     FM281500 15007KT P6SM FEW045 SCT060=

USA.gov is the U.S. government's official web portal to all federal, state and local government web resources and services.